X  SluitMETAR luchtvaart weer gegevens      EHRD Rotterdam

Temperatuur

14°C Temperatuur

13°C Dauwpunt

94% Vochtigheid



Wind

14 KM/U

 9 MPH

 4 M/S

 8 KTS



190°
Het Zuiden
Huidig weer

Wat bewolking Wat bewolking
Luchtdruk 1018.92 (hPa) - 30.09 (in)
Zicht 6.2 (mi) - 10 (km)
Vliegveld
Vliegveld code EHRD

Locatie Rotterdam 14 (km)

Metar:
EHRD 200325Z AUTO 19008KT 160V220 9999 FEW027 14/13 Q1019 NOSIG

Tijd: 20-08-2019 05:25